Time;durP1;ratioP1;P1;durP2;ratioP2;P2;SDS_P1;SDS_P2;PMS_P1;PMS_P2;Temp;Humidity;BMP_temperature;BMP_pressure;BME280_temperature;BME280_humidity;BME280_pressure;Samples;Min_cycle;Max_cycle;Signal;HPM_P1;HPM_P2
2023/09/01 00:01:10;;;;;;;0.30;0.30;;;;;;;-144.31;100.00;58022.63;4848886;29;20213;-60
2023/09/01 00:04:50;;;;;;;0.30;0.30;;;;;;;-144.31;100.00;58022.63;4862682;29;20057;-59
2023/09/01 00:08:14;;;;;;;0.30;0.30;;;;;;;-144.31;100.00;58022.63;4848640;29;20056;-59
2023/09/01 00:11:38;;;;;;;0.20;0.20;;;;;;;-144.31;100.00;58022.63;4849852;29;20408;-59
2023/09/01 00:15:03;;;;;;;0.30;0.30;;;;;;;-144.31;100.00;58022.63;4847270;29;20133;-59
2023/09/01 00:18:27;;;;;;;0.30;0.30;;;;;;;-144.31;100.00;58022.63;4849660;29;20041;-58
2023/09/01 00:21:55;;;;;;;0.30;0.30;;;;;;;-144.31;100.00;58022.63;4848230;29;20046;-59
2023/09/01 00:25:19;;;;;;;0.30;0.30;;;;;;;-144.31;100.00;58022.63;4861524;29;20527;-60
2023/09/01 00:28:43;;;;;;;0.30;0.30;;;;;;;-144.31;100.00;58022.63;4849334;29;20481;-60
2023/09/01 00:32:07;;;;;;;0.30;0.30;;;;;;;-144.31;100.00;58022.63;4847128;29;20041;-60
2023/09/01 00:35:31;;;;;;;0.20;0.20;;;;;;;-144.31;100.00;58022.63;4848564;29;20056;-57
2023/09/01 00:38:55;;;;;;;0.20;0.20;;;;;;;-144.31;100.00;58022.63;4859726;29;20048;-58
2023/09/01 00:42:19;;;;;;;0.30;0.30;;;;;;;-144.31;100.00;58022.63;4849678;29;20064;-58
2023/09/01 00:45:43;;;;;;;0.20;0.20;;;;;;;-144.31;100.00;58022.63;4857891;29;20584;-59
2023/09/01 00:49:09;;;;;;;0.20;0.20;;;;;;;-144.31;100.00;58022.63;4843086;29;20061;-58
2023/09/01 00:52:35;;;;;;;0.30;0.30;;;;;;;-144.31;100.00;58022.63;4859595;29;20045;-58
2023/09/01 00:55:59;;;;;;;0.30;0.30;;;;;;;-144.31;100.00;58022.63;4849608;29;20034;-58
2023/09/01 00:59:24;;;;;;;0.30;0.30;;;;;;;-144.31;100.00;58022.63;4845961;29;20046;-59
2023/09/01 01:02:48;;;;;;;0.20;0.20;;;;;;;-144.31;100.00;58022.63;4863403;29;20073;-58
2023/09/01 01:06:25;;;;;;;0.30;0.30;;;;;;;-144.31;100.00;58022.63;4858977;29;20057;-59
2023/09/01 01:10:17;;;;;;;0.30;0.30;;;;;;;-144.31;100.00;58022.63;4860370;29;20049;-58
2023/09/01 01:13:46;;;;;;;0.30;0.30;;;;;;;-144.31;100.00;58022.63;4846440;29;20046;-60
2023/09/01 01:17:13;;;;;;;0.30;0.30;;;;;;;-144.31;100.00;58022.63;4852483;29;20046;-59
2023/09/01 01:20:52;;;;;;;0.30;0.30;;;;;;;-144.31;100.00;58022.63;4844672;29;20077;-58
2023/09/01 01:24:16;;;;;;;0.30;0.30;;;;;;;-144.31;100.00;58022.63;4852300;29;20046;-59
2023/09/01 01:27:42;;;;;;;0.30;0.30;;;;;;;-144.31;100.00;58022.63;4848670;29;20124;-59
2023/09/01 01:31:09;;;;;;;0.30;0.30;;;;;;;-144.31;100.00;58022.63;4846616;29;20042;-58
2023/09/01 01:35:12;;;;;;;0.30;0.30;;;;;;;-144.31;100.00;58022.63;4861065;29;20413;-57
2023/09/01 01:39:01;;;;;;;0.30;0.30;;;;;;;-144.31;100.00;58022.63;4826566;29;20064;-58
2023/09/01 01:42:48;;;;;;;0.30;0.30;;;;;;;-144.31;100.00;58022.63;4846615;29;20533;-59
2023/09/01 01:46:14;;;;;;;0.30;0.30;;;;;;;-144.31;100.00;58022.63;4842471;29;20699;-57
2023/09/01 01:49:38;;;;;;;0.30;0.30;;;;;;;-144.31;100.00;58022.63;4842659;29;20492;-57
2023/09/01 01:53:05;;;;;;;0.30;0.30;;;;;;;-144.31;100.00;58022.63;4843810;29;20103;-59
2023/09/01 01:56:30;;;;;;;0.20;0.20;;;;;;;-144.31;100.00;58022.63;4862622;29;20056;-57
2023/09/01 01:59:54;;;;;;;0.30;0.30;;;;;;;-144.31;100.00;58022.63;4851435;29;20050;-57
2023/09/01 02:03:18;;;;;;;0.30;0.30;;;;;;;-144.31;100.00;58022.63;4842907;29;20069;-58
2023/09/01 02:06:42;;;;;;;0.30;0.30;;;;;;;-144.31;100.00;58022.63;4843406;29;20072;-57
2023/09/01 02:10:06;;;;;;;0.30;0.30;;;;;;;-144.31;100.00;58022.63;4843089;29;20081;-58
2023/09/01 02:13:33;;;;;;;0.30;0.30;;;;;;;-144.31;100.00;58022.63;4861880;29;20049;-58
2023/09/01 02:16:59;;;;;;;0.30;0.30;;;;;;;-144.31;100.00;58022.63;4857818;29;20558;-57
2023/09/01 02:20:26;;;;;;;0.20;0.20;;;;;;;-144.31;100.00;58022.63;4851127;29;20074;-58
2023/09/01 02:23:52;;;;;;;0.30;0.30;;;;;;;-144.31;100.00;58022.63;4848123;29;20141;-58
2023/09/01 02:27:21;;;;;;;0.30;0.30;;;;;;;-144.31;100.00;58022.63;4857078;29;20162;-58
2023/09/01 02:30:45;;;;;;;0.20;0.20;;;;;;;-144.31;100.00;58022.63;4843061;29;20056;-58
2023/09/01 02:34:09;;;;;;;0.30;0.30;;;;;;;-144.31;100.00;58022.63;4858882;29;20060;-58
2023/09/01 02:37:33;;;;;;;0.20;0.20;;;;;;;-144.31;100.00;58022.63;4853310;29;20045;-58
2023/09/01 02:40:57;;;;;;;0.30;0.30;;;;;;;-144.31;100.00;58022.63;4846045;29;20560;-58
2023/09/01 02:44:20;;;;;;;0.30;0.30;;;;;;;-144.31;100.00;58022.63;4851956;29;20041;-58
2023/09/01 02:47:44;;;;;;;0.30;0.30;;;;;;;-144.31;100.00;58022.63;4857959;29;20517;-60
2023/09/01 02:51:09;;;;;;;0.30;0.30;;;;;;;-144.31;100.00;58022.63;4843159;29;20540;-59
2023/09/01 02:54:33;;;;;;;0.30;0.30;;;;;;;-144.31;100.00;58022.63;4847117;29;20407;-58
2023/09/01 02:57:57;;;;;;;0.30;0.30;;;;;;;-144.31;100.00;58022.63;4841353;29;20140;-59
2023/09/01 03:01:21;;;;;;;0.20;0.20;;;;;;;-144.31;100.00;58022.63;4841556;29;20060;-59
2023/09/01 03:04:48;;;;;;;0.30;0.30;;;;;;;-144.31;100.00;58022.63;4858267;29;20046;-59
2023/09/01 03:08:12;;;;;;;0.30;0.30;;;;;;;-144.31;100.00;58022.63;4861383;29;20061;-59
2023/09/01 03:11:37;;;;;;;0.30;0.30;;;;;;;-144.31;100.00;58022.63;4841695;29;20056;-58
2023/09/01 03:15:01;;;;;;;0.30;0.30;;;;;;;-144.31;100.00;58022.63;4845296;29;20053;-59
2023/09/01 03:18:25;;;;;;;0.20;0.20;;;;;;;-144.31;100.00;58022.63;4844697;29;20131;-58
2023/09/01 03:21:49;;;;;;;0.30;0.30;;;;;;;-144.31;100.00;58022.63;4853249;29;20053;-58
2023/09/01 03:25:14;;;;;;;0.30;0.30;;;;;;;-144.31;100.00;58022.63;4843611;29;20146;-58
2023/09/01 03:28:39;;;;;;;0.30;0.30;;;;;;;-144.31;100.00;58022.63;4845715;29;20069;-58
2023/09/01 03:32:08;;;;;;;0.30;0.30;;;;;;;-144.31;100.00;58022.63;4842951;29;20046;-58
2023/09/01 03:35:32;;;;;;;0.25;0.25;;;;;;;-144.31;100.00;58022.63;4860383;29;20045;-59
2023/09/01 03:38:59;;;;;;;0.20;0.20;;;;;;;-144.31;100.00;58022.63;4840820;29;20067;-59
2023/09/01 03:42:23;;;;;;;0.30;0.30;;;;;;;-144.31;100.00;58022.63;4857514;29;20101;-59
2023/09/01 03:45:47;;;;;;;0.30;0.30;;;;;;;-144.31;100.00;58022.63;4857513;29;20054;-59
2023/09/01 03:49:11;;;;;;;0.30;0.30;;;;;;;-144.31;100.00;58022.63;4852728;29;20451;-59
2023/09/01 03:52:35;;;;;;;0.30;0.30;;;;;;;-144.31;100.00;58022.63;4841008;29;20634;-59
2023/09/01 03:56:06;;;;;;;0.30;0.30;;;;;;;-144.31;100.00;58022.63;4845940;29;20063;-59
2023/09/01 03:59:30;;;;;;;0.25;0.25;;;;;;;-144.31;100.00;58022.63;4858070;29;20050;-60
2023/09/01 04:02:54;;;;;;;0.30;0.30;;;;;;;-144.31;100.00;58022.63;4852658;29;20079;-60
2023/09/01 04:06:18;;;;;;;0.30;0.30;;;;;;;-144.31;100.00;58022.63;4845408;29;20474;-57
2023/09/01 04:09:41;;;;;;;0.20;0.20;;;;;;;-144.31;100.00;58022.63;4845128;29;20182;-57
2023/09/01 04:13:05;;;;;;;0.30;0.30;;;;;;;-144.31;100.00;58022.63;4858588;29;20042;-60
2023/09/01 04:16:29;;;;;;;0.30;0.30;;;;;;;-144.31;100.00;58022.63;4850493;29;20041;-60
2023/09/01 04:19:53;;;;;;;0.25;0.25;;;;;;;-144.31;100.00;58022.63;4847839;29;20042;-59
2023/09/01 04:23:18;;;;;;;0.20;0.20;;;;;;;-144.31;100.00;58022.63;4862809;29;20050;-59
2023/09/01 04:26:42;;;;;;;0.30;0.30;;;;;;;-144.31;100.00;58022.63;4844622;29;20046;-59
2023/09/01 04:30:05;;;;;;;0.30;0.30;;;;;;;-144.31;100.00;58022.63;4850170;29;20073;-59
2023/09/01 04:33:31;;;;;;;0.30;0.30;;;;;;;-144.31;100.00;58022.63;4845581;29;20161;-58
2023/09/01 04:36:59;;;;;;;0.30;0.30;;;;;;;-144.31;100.00;58022.63;4854752;29;20120;-59
2023/09/01 04:40:24;;;;;;;0.30;0.30;;;;;;;-144.31;100.00;58022.63;4853288;29;20050;-59
2023/09/01 04:43:47;;;;;;;0.20;0.20;;;;;;;-144.31;100.00;58022.63;4860365;29;20499;-59
2023/09/01 04:47:11;;;;;;;0.20;0.20;;;;;;;-144.31;100.00;58022.63;4863598;29;20053;-59
2023/09/01 04:50:37;;;;;;;0.30;0.30;;;;;;;-144.31;100.00;58022.63;4858572;29;20061;-61
2023/09/01 04:54:01;;;;;;;0.20;0.20;;;;;;;-144.31;100.00;58022.63;4837602;29;20050;-58
2023/09/01 04:57:26;;;;;;;0.30;0.30;;;;;;;-144.31;100.00;58022.63;4860137;29;20045;-59
2023/09/01 05:00:50;;;;;;;0.30;0.30;;;;;;;-144.31;100.00;58022.63;4860285;29;20045;-59
2023/09/01 05:04:15;;;;;;;0.30;0.30;;;;;;;-144.31;100.00;58022.63;4862179;29;20281;-58
2023/09/01 05:07:39;;;;;;;0.30;0.30;;;;;;;-144.31;100.00;58022.63;4842847;29;20053;-59
2023/09/01 05:11:03;;;;;;;0.30;0.30;;;;;;;-144.31;100.00;58022.63;4842827;29;20049;-59
2023/09/01 05:14:27;;;;;;;0.25;0.25;;;;;;;-144.31;100.00;58022.63;4859844;29;20045;-59
2023/09/01 05:17:51;;;;;;;0.22;0.22;;;;;;;-144.31;100.00;58022.63;4849028;29;20037;-59
2023/09/01 05:21:16;;;;;;;0.20;0.20;;;;;;;-144.31;100.00;58022.63;4842401;29;20041;-59
2023/09/01 05:24:41;;;;;;;0.30;0.30;;;;;;;-144.31;100.00;58022.63;4858266;29;20041;-59
2023/09/01 05:28:05;;;;;;;0.20;0.20;;;;;;;-144.31;100.00;58022.63;4858859;29;20049;-58
2023/09/01 05:31:29;;;;;;;0.20;0.20;;;;;;;-144.31;100.00;58022.63;4859992;29;20061;-59
2023/09/01 05:34:55;;;;;;;0.20;0.20;;;;;;;-144.31;100.00;58022.63;4862385;29;20132;-59
2023/09/01 05:38:19;;;;;;;0.20;0.20;;;;;;;-144.31;100.00;58022.63;4842800;29;20459;-60
2023/09/01 05:41:43;;;;;;;0.20;0.20;;;;;;;-144.31;100.00;58022.63;4848286;29;20045;-59
2023/09/01 05:45:07;;;;;;;0.20;0.20;;;;;;;-144.31;100.00;58022.63;4852352;29;20126;-59
2023/09/01 05:48:32;;;;;;;0.20;0.20;;;;;;;-144.31;100.00;58022.63;4854138;29;20045;-59
2023/09/01 05:51:56;;;;;;;0.20;0.20;;;;;;;-144.31;100.00;58022.63;4852211;29;20046;-59
2023/09/01 05:55:20;;;;;;;0.20;0.20;;;;;;;-144.31;100.00;58022.63;4847115;29;20046;-58
2023/09/01 05:58:44;;;;;;;0.20;0.20;;;;;;;-144.31;100.00;58022.63;4860106;29;20049;-59
2023/09/01 06:02:08;;;;;;;0.20;0.20;;;;;;;-144.31;100.00;58022.63;4848210;29;20076;-59
2023/09/01 06:05:32;;;;;;;0.20;0.20;;;;;;;-144.31;100.00;58022.63;4845480;29;20049;-58
2023/09/01 06:08:56;;;;;;;0.20;0.20;;;;;;;-144.31;100.00;58022.63;4846773;29;20049;-58
2023/09/01 06:12:19;;;;;;;0.20;0.20;;;;;;;-144.31;100.00;58022.63;4842778;29;20046;-59
2023/09/01 06:15:43;;;;;;;0.20;0.20;;;;;;;-144.31;100.00;58022.63;4847688;29;20037;-58
2023/09/01 06:19:07;;;;;;;0.20;0.20;;;;;;;-144.31;100.00;58022.63;4859296;29;20041;-58
2023/09/01 06:22:31;;;;;;;0.20;0.20;;;;;;;-144.31;100.00;58022.63;4847616;29;20076;-59
2023/09/01 06:25:55;;;;;;;0.20;0.20;;;;;;;-144.31;100.00;58022.63;4846311;29;20132;-58
2023/09/01 06:29:19;;;;;;;0.20;0.20;;;;;;;-144.31;100.00;58022.63;4845700;29;20504;-59
2023/09/01 06:32:43;;;;;;;0.20;0.20;;;;;;;-144.31;100.00;58022.63;4847251;29;20132;-59
2023/09/01 06:36:08;;;;;;;0.20;0.20;;;;;;;-144.31;100.00;58022.63;4844777;29;20551;-59
2023/09/01 06:39:32;;;;;;;0.20;0.20;;;;;;;-144.31;100.00;58022.63;4847159;29;20097;-59
2023/09/01 06:42:56;;;;;;;0.20;0.20;;;;;;;-144.31;100.00;58022.63;4845750;29;20473;-59
2023/09/01 06:46:20;;;;;;;0.20;0.20;;;;;;;-144.31;100.00;58022.63;4845283;29;20124;-58
2023/09/01 06:49:44;;;;;;;0.20;0.20;;;;;;;-144.31;100.00;58022.63;4847665;29;20049;-58
2023/09/01 06:53:08;;;;;;;0.20;0.20;;;;;;;-144.31;100.00;58022.63;4844821;29;20077;-59
2023/09/01 06:56:31;;;;;;;0.30;0.30;;;;;;;-144.31;100.00;58022.63;4846377;29;20330;-59
2023/09/01 06:59:55;;;;;;;0.20;0.20;;;;;;;-144.31;100.00;58022.63;4846407;29;20415;-59
2023/09/01 07:03:20;;;;;;;0.20;0.20;;;;;;;-144.31;100.00;58022.63;4844824;29;20500;-60
2023/09/01 07:06:50;;;;;;;0.20;0.20;;;;;;;-144.31;100.00;58022.63;4847438;29;20037;-60
2023/09/01 07:10:12;;;;;;;0.30;0.30;;;;;;;-144.31;100.00;58022.63;4852006;29;20050;-61
2023/09/01 07:13:36;;;;;;;0.30;0.30;;;;;;;-144.31;100.00;58022.63;4845727;29;20045;-61
2023/09/01 07:17:00;;;;;;;0.20;0.20;;;;;;;-144.31;100.00;58022.63;4846829;29;20185;-59
2023/09/01 07:20:24;;;;;;;0.20;0.20;;;;;;;-144.31;100.00;58022.63;4844415;29;20132;-59
2023/09/01 07:23:49;;;;;;;0.28;0.28;;;;;;;-144.31;100.00;58022.63;4847259;29;20120;-60
2023/09/01 07:27:14;;;;;;;0.20;0.20;;;;;;;-144.31;100.00;58022.63;4846152;29;20057;-59
2023/09/01 07:30:37;;;;;;;0.20;0.20;;;;;;;-144.31;100.00;58022.63;4859384;29;20408;-60
2023/09/01 07:34:02;;;;;;;0.20;0.20;;;;;;;-144.31;100.00;58022.63;4842178;29;20054;-60
2023/09/01 07:37:26;;;;;;;0.20;0.20;;;;;;;-144.31;100.00;58022.63;4847072;29;20061;-60
2023/09/01 07:40:50;;;;;;;0.20;0.20;;;;;;;-144.31;100.00;58022.63;4843905;29;20351;-59
2023/09/01 07:44:17;;;;;;;0.22;0.22;;;;;;;-144.31;100.00;58022.63;4858746;29;20136;-60
2023/09/01 07:47:42;;;;;;;0.20;0.20;;;;;;;-144.31;100.00;58022.63;4840117;29;20041;-60
2023/09/01 07:51:07;;;;;;;0.20;0.20;;;;;;;-144.31;100.00;58022.63;4852332;29;20046;-60
2023/09/01 07:54:31;;;;;;;0.20;0.20;;;;;;;-144.31;100.00;58022.63;4849701;29;20537;-60
2023/09/01 07:57:59;;;;;;;0.20;0.20;;;;;;;-144.31;100.00;58022.63;4847542;29;20053;-60
2023/09/01 08:01:23;;;;;;;0.20;0.20;;;;;;;-144.31;100.00;58022.63;4845735;29;20073;-60
2023/09/01 08:04:46;;;;;;;0.20;0.20;;;;;;;-144.31;100.00;58022.63;4846684;29;20041;-60
2023/09/01 08:08:13;;;;;;;0.20;0.20;;;;;;;-144.31;100.00;58022.63;4844855;29;20053;-60
2023/09/01 08:11:37;;;;;;;0.20;0.20;;;;;;;-144.31;100.00;58022.63;4849347;29;20065;-60
2023/09/01 08:15:00;;;;;;;0.20;0.20;;;;;;;-144.31;100.00;58022.63;4848961;29;20038;-60
2023/09/01 08:18:24;;;;;;;0.20;0.20;;;;;;;-144.31;100.00;58022.63;4844687;29;20057;-60
2023/09/01 08:21:48;;;;;;;0.20;0.20;;;;;;;-144.31;100.00;58022.63;4845831;29;20073;-59
2023/09/01 08:25:13;;;;;;;0.20;0.20;;;;;;;-144.31;100.00;58022.63;4846541;29;20044;-60
2023/09/01 08:28:37;;;;;;;0.20;0.20;;;;;;;-144.31;100.00;58022.63;4844125;29;20041;-59
2023/09/01 08:32:05;;;;;;;0.10;0.10;;;;;;;-144.31;100.00;58022.63;4844333;29;20122;-60
2023/09/01 08:35:29;;;;;;;0.17;0.17;;;;;;;-144.31;100.00;58022.63;4845125;29;20058;-60
2023/09/01 08:38:53;;;;;;;0.10;0.10;;;;;;;-144.31;100.00;58022.63;4844856;29;20052;-60
2023/09/01 08:42:19;;;;;;;0.10;0.10;;;;;;;-144.31;100.00;58022.63;4845034;29;20491;-59
2023/09/01 08:45:44;;;;;;;0.10;0.10;;;;;;;-144.31;100.00;58022.63;4845614;29;20117;-60
2023/09/01 08:49:08;;;;;;;0.10;0.10;;;;;;;-144.31;100.00;58022.63;4846698;29;20046;-60
2023/09/01 08:52:33;;;;;;;0.10;0.10;;;;;;;-144.31;100.00;58022.63;4847305;29;20041;-60
2023/09/01 08:55:57;;;;;;;0.20;0.20;;;;;;;-144.31;100.00;58022.63;4843303;29;20103;-60
2023/09/01 08:59:24;;;;;;;0.10;0.10;;;;;;;-144.31;100.00;58022.63;4847115;29;20527;-59
2023/09/01 09:02:48;;;;;;;0.10;0.10;;;;;;;-144.31;100.00;58022.63;4845220;29;20057;-60
2023/09/01 09:06:13;;;;;;;0.10;0.10;;;;;;;-144.31;100.00;58022.63;4845878;29;20084;-59
2023/09/01 09:09:48;;;;;;;0.10;0.10;;;;;;;-144.31;100.00;58022.63;4843429;29;20042;-60
2023/09/01 09:13:28;;;;;;;;;;;;;;;-144.31;100.00;58022.63;4844359;29;20511;-59
2023/09/01 09:17:10;;;;;;;0.10;0.10;;;;;;;-144.31;100.00;58022.63;4848356;29;19920;-59
2023/09/01 09:20:37;;;;;;;0.20;0.20;;;;;;;-144.31;100.00;58022.63;4846168;29;20046;-59
2023/09/01 09:24:02;;;;;;;0.10;0.10;;;;;;;-144.31;100.00;58022.63;4847031;29;20499;-59
2023/09/01 09:27:27;;;;;;;0.10;0.10;;;;;;;-144.31;100.00;58022.63;4845735;29;20375;-59
2023/09/01 09:30:52;;;;;;;0.10;0.10;;;;;;;-144.31;100.00;58022.63;4846195;29;20618;-59
2023/09/01 09:34:24;;;;;;;0.10;0.10;;;;;;;-144.31;100.00;58022.63;4846450;29;20046;-59
2023/09/01 09:37:56;;;;;;;0.10;0.10;;;;;;;-144.31;100.00;58022.63;4843405;29;20038;-59
2023/09/01 09:41:20;;;;;;;0.10;0.10;;;;;;;-144.31;100.00;58022.63;4843906;29;20132;-59
2023/09/01 09:44:48;;;;;;;0.10;0.10;;;;;;;-144.31;100.00;58022.63;4843351;29;20045;-59
2023/09/01 09:48:13;;;;;;;0.10;0.10;;;;;;;-144.31;100.00;58022.63;4842397;29;20416;-59
2023/09/01 09:51:42;;;;;;;0.10;0.10;;;;;;;-144.31;100.00;58022.63;4845917;29;20055;-58
2023/09/01 09:55:10;;;;;;;0.10;0.10;;;;;;;-144.31;100.00;58022.63;4843362;29;20080;-59
2023/09/01 09:58:39;;;;;;;0.10;0.10;;;;;;;-144.31;100.00;58022.63;4844379;29;20060;-58
2023/09/01 10:02:23;;;;;;;0.05;0.05;;;;;;;-144.31;100.00;58022.63;4844062;29;20046;-58
2023/09/01 10:05:52;;;;;;;0.10;0.10;;;;;;;-144.31;100.00;58022.63;4845094;29;20038;-56
2023/09/01 10:09:17;;;;;;;0.00;0.00;;;;;;;-144.31;100.00;58022.63;4846751;29;20443;-59
2023/09/01 10:12:42;;;;;;;0.05;0.05;;;;;;;-144.31;100.00;58022.63;4843487;29;20052;-59
2023/09/01 10:16:11;;;;;;;0.10;0.10;;;;;;;-144.31;100.00;58022.63;4845015;29;20102;-59
2023/09/01 10:19:36;;;;;;;0.10;0.10;;;;;;;-144.31;100.00;58022.63;4841261;29;20114;-60
2023/09/01 10:23:03;;;;;;;0.10;0.10;;;;;;;-144.31;100.00;58022.63;4842947;29;20038;-59
2023/09/01 10:26:28;;;;;;;0.10;0.10;;;;;;;-144.31;100.00;58022.63;4844201;29;20068;-60
2023/09/01 10:29:59;;;;;;;0.10;0.10;;;;;;;-144.31;100.00;58022.63;4846166;29;20049;-60
2023/09/01 10:33:26;;;;;;;0.10;0.10;;;;;;;-144.31;100.00;58022.63;4844349;29;20049;-59
2023/09/01 10:37:10;;;;;;;0.10;0.10;;;;;;;-144.31;100.00;58022.63;4843686;29;20125;-59
2023/09/01 10:40:41;;;;;;;0.10;0.10;;;;;;;-144.31;100.00;58022.63;4843432;29;20034;-59
2023/09/01 10:44:05;;;;;;;0.10;0.10;;;;;;;-144.31;100.00;58022.63;4842716;29;20046;-59
2023/09/01 10:47:40;;;;;;;0.10;0.10;;;;;;;-144.31;100.00;58022.63;4843923;29;20491;-59
2023/09/01 10:51:14;;;;;;;0.10;0.10;;;;;;;-144.31;100.00;58022.63;4842424;29;20176;-58
2023/09/01 10:54:38;;;;;;;0.10;0.10;;;;;;;-144.31;100.00;58022.63;4844609;29;20061;-59
2023/09/01 10:58:07;;;;;;;0.10;0.10;;;;;;;-144.31;100.00;58022.63;4845778;29;20063;-60
2023/09/01 11:01:36;;;;;;;0.10;0.10;;;;;;;-144.31;100.00;58022.63;4844188;29;20037;-59
2023/09/01 11:05:12;;;;;;;0.10;0.10;;;;;;;-144.31;100.00;58022.63;4840933;29;20064;-58
2023/09/01 11:08:57;;;;;;;0.10;0.10;;;;;;;-144.31;100.00;58022.63;4844880;29;20129;-59
2023/09/01 11:12:26;;;;;;;0.10;0.10;;;;;;;-144.31;100.00;58022.63;4843048;29;20170;-59
2023/09/01 11:15:52;;;;;;;0.10;0.10;;;;;;;-144.31;100.00;58022.63;4845214;29;20489;-58
2023/09/01 11:19:20;;;;;;;0.10;0.10;;;;;;;-144.31;100.00;58022.63;4844531;29;20045;-60
2023/09/01 11:22:44;;;;;;;0.10;0.10;;;;;;;-144.31;100.00;58022.63;4841929;29;20037;-59
2023/09/01 11:26:12;;;;;;;0.10;0.10;;;;;;;-144.31;100.00;58022.63;4847984;29;20034;-59
2023/09/01 11:29:38;;;;;;;0.10;0.10;;;;;;;-144.31;100.00;58022.63;4847276;29;20295;-58
2023/09/01 11:33:11;;;;;;;0.10;0.10;;;;;;;-144.31;100.00;58022.63;4848160;29;20059;-58
2023/09/01 11:36:44;;;;;;;0.03;0.03;;;;;;;-144.31;100.00;58022.63;4845674;29;20491;-58
2023/09/01 11:40:09;;;;;;;0.10;0.10;;;;;;;-144.31;100.00;58022.63;4847707;29;20559;-59
2023/09/01 11:43:37;;;;;;;0.10;0.10;;;;;;;-144.31;100.00;58022.63;4848207;29;20097;-58
2023/09/01 11:47:01;;;;;;;0.10;0.10;;;;;;;-144.31;100.00;58022.63;4843712;29;20041;-58
2023/09/01 11:50:25;;;;;;;0.00;0.00;;;;;;;-144.31;100.00;58022.63;4849128;29;20049;-58
2023/09/01 11:53:51;;;;;;;0.10;0.10;;;;;;;-144.31;100.00;58022.63;4843922;29;20042;-58
2023/09/01 11:57:20;;;;;;;0.00;0.00;;;;;;;-144.31;100.00;58022.63;4847422;29;20053;-58
2023/09/01 12:00:47;;;;;;;0.00;0.00;;;;;;;-144.31;100.00;58022.63;4845602;29;20472;-59
2023/09/01 12:04:11;;;;;;;0.00;0.00;;;;;;;-144.31;100.00;58022.63;4845318;29;20796;-59
2023/09/01 12:07:38;;;;;;;0.00;0.00;;;;;;;-144.31;100.00;58022.63;4848748;29;20038;-58
2023/09/01 12:11:20;;;;;;;0.10;0.10;;;;;;;-144.31;100.00;58022.63;4847773;29;20041;-58
2023/09/01 12:14:44;;;;;;;0.05;0.05;;;;;;;-144.31;100.00;58022.63;4843567;29;20555;-58
2023/09/01 12:18:27;;;;;;;0.10;0.10;;;;;;;-144.31;100.00;58022.63;4844606;29;20054;-58
2023/09/01 12:21:52;;;;;;;0.00;0.00;;;;;;;-144.31;100.00;58022.63;4845849;29;20076;-58
2023/09/01 12:25:17;;;;;;;0.10;0.10;;;;;;;-144.31;100.00;58022.63;4847497;29;20033;-58
2023/09/01 12:28:42;;;;;;;0.10;0.10;;;;;;;-144.31;100.00;58022.63;4847001;29;20041;-59
2023/09/01 12:32:08;;;;;;;0.00;0.00;;;;;;;-144.31;100.00;58022.63;4844525;29;20042;-58
2023/09/01 12:35:31;;;;;;;0.10;0.10;;;;;;;-144.31;100.00;58022.63;4846252;29;20037;-58
2023/09/01 12:38:55;;;;;;;0.00;0.00;;;;;;;-144.31;100.00;58022.63;4845713;29;20041;-58
2023/09/01 12:42:19;;;;;;;0.00;0.00;;;;;;;-144.31;100.00;58022.63;4844839;29;20045;-60
2023/09/01 12:45:43;;;;;;;0.00;0.00;;;;;;;-144.31;100.00;58022.63;4843288;29;20157;-58
2023/09/01 12:49:07;;;;;;;0.10;0.10;;;;;;;-144.31;100.00;58022.63;4846009;29;20049;-58
2023/09/01 12:52:31;;;;;;;0.10;0.10;;;;;;;-144.31;100.00;58022.63;4852363;29;20052;-58
2023/09/01 12:55:57;;;;;;;0.03;0.03;;;;;;;-144.31;100.00;58022.63;4859308;29;20431;-58
2023/09/01 12:59:21;;;;;;;0.05;0.05;;;;;;;-144.31;100.00;58022.63;4845932;29;20054;-58
2023/09/01 13:02:48;;;;;;;0.00;0.00;;;;;;;-144.31;100.00;58022.63;4844263;29;20033;-57
2023/09/01 13:06:15;;;;;;;0.00;0.00;;;;;;;-144.31;100.00;58022.63;4843973;29;20409;-58
2023/09/01 13:09:39;;;;;;;0.00;0.00;;;;;;;-144.31;100.00;58022.63;4845963;29;20064;-58
2023/09/01 13:13:03;;;;;;;0.00;0.00;;;;;;;-144.31;100.00;58022.63;4845242;29;20046;-58
2023/09/01 13:16:28;;;;;;;0.00;0.00;;;;;;;-144.31;100.00;58022.63;4845532;29;20045;-57
2023/09/01 13:19:52;;;;;;;0.00;0.00;;;;;;;-144.31;100.00;58022.63;4846028;29;20046;-58
2023/09/01 13:23:16;;;;;;;0.00;0.00;;;;;;;-144.31;100.00;58022.63;4847420;29;20056;-59
2023/09/01 13:26:40;;;;;;;0.00;0.00;;;;;;;-144.31;100.00;58022.63;4843718;29;20110;-58
2023/09/01 13:30:05;;;;;;;0.00;0.00;;;;;;;-144.31;100.00;58022.63;4847454;29;20599;-57
2023/09/01 13:33:29;;;;;;;0.10;0.10;;;;;;;-144.31;100.00;58022.63;4845001;29;20056;-58
2023/09/01 13:36:53;;;;;;;0.10;0.10;;;;;;;-144.31;100.00;58022.63;4846503;29;20076;-58
2023/09/01 13:40:17;;;;;;;0.00;0.00;;;;;;;-144.31;100.00;58022.63;4840646;29;20081;-58
2023/09/01 13:43:41;;;;;;;0.00;0.00;;;;;;;-144.31;100.00;58022.63;4851502;29;20045;-59
2023/09/01 13:47:24;;;;;;;0.00;0.00;;;;;;;-144.31;100.00;58022.63;4843493;29;20050;-58
2023/09/01 13:50:48;;;;;;;0.10;0.10;;;;;;;-144.31;100.00;58022.63;4846920;29;20056;-58
2023/09/01 13:54:12;;;;;;;0.10;0.10;;;;;;;-144.31;100.00;58022.63;4844972;29;20049;-59
2023/09/01 13:57:38;;;;;;;0.10;0.10;;;;;;;-144.31;100.00;58022.63;4840117;29;20041;-58
2023/09/01 14:01:03;;;;;;;0.10;0.10;;;;;;;-144.31;100.00;58022.63;4844692;29;20053;-58
2023/09/01 14:04:26;;;;;;;0.10;0.10;;;;;;;-144.31;100.00;58022.63;4840088;29;20120;-59
2023/09/01 14:07:50;;;;;;;0.10;0.10;;;;;;;-144.31;100.00;58022.63;4843240;29;20112;-57
2023/09/01 14:11:14;;;;;;;0.13;0.13;;;;;;;-144.31;100.00;58022.63;4843648;29;20065;-59
2023/09/01 14:14:38;;;;;;;0.10;0.10;;;;;;;-144.31;100.00;58022.63;4846299;29;20096;-59
2023/09/01 14:18:03;;;;;;;0.10;0.10;;;;;;;-144.31;100.00;58022.63;4858600;29;20122;-59
2023/09/01 14:21:27;;;;;;;0.10;0.10;;;;;;;-144.31;100.00;58022.63;4857082;29;20663;-59
2023/09/01 14:24:50;;;;;;;0.00;0.00;;;;;;;-144.31;100.00;58022.63;4838684;29;20132;-58
2023/09/01 14:28:15;;;;;;;0.00;0.00;;;;;;;-144.31;100.00;58022.63;4847882;29;20053;-58
2023/09/01 14:31:39;;;;;;;0.00;0.00;;;;;;;-144.31;100.00;58022.63;4845881;29;20069;-58
2023/09/01 14:35:06;;;;;;;0.00;0.00;;;;;;;-144.31;100.00;58022.63;4845212;29;20069;-59
2023/09/01 14:38:30;;;;;;;0.00;0.00;;;;;;;-144.31;100.00;58022.63;4845660;29;20042;-58
2023/09/01 14:41:54;;;;;;;0.00;0.00;;;;;;;-144.31;100.00;58022.63;4851182;29;20504;-59
2023/09/01 14:45:18;;;;;;;0.00;0.00;;;;;;;-144.31;100.00;58022.63;4853143;29;20046;-58
2023/09/01 14:48:42;;;;;;;0.00;0.00;;;;;;;-144.31;100.00;58022.63;4847416;29;20408;-58
2023/09/01 14:52:10;;;;;;;0.00;0.00;;;;;;;-144.31;100.00;58022.63;4844009;29;20046;-58
2023/09/01 14:55:35;;;;;;;0.10;0.10;;;;;;;-144.31;100.00;58022.63;4843495;29;20041;-58
2023/09/01 14:58:59;;;;;;;0.10;0.10;;;;;;;-144.31;100.00;58022.63;4843960;29;20045;-58
2023/09/01 15:02:23;;;;;;;0.10;0.10;;;;;;;-144.31;100.00;58022.63;4845432;29;20077;-57
2023/09/01 15:05:49;;;;;;;0.05;0.05;;;;;;;-144.31;100.00;58022.63;4857774;29;20759;-58
2023/09/01 15:09:14;;;;;;;;;;;;;;;-144.31;100.00;58022.63;4844683;29;20097;-58
2023/09/01 15:12:41;;;;;;;0.05;0.05;;;;;;;-144.31;100.00;58022.63;4845349;29;19924;-59
2023/09/01 15:16:05;;;;;;;0.10;0.10;;;;;;;-144.31;100.00;58022.63;4854942;29;20053;-58
2023/09/01 15:19:29;;;;;;;0.20;0.20;;;;;;;-144.31;100.00;58022.63;4844814;29;20073;-58
2023/09/01 15:22:53;;;;;;;0.00;0.00;;;;;;;-144.31;100.00;58022.63;4857575;29;20085;-59
2023/09/01 15:26:17;;;;;;;0.00;0.00;;;;;;;-144.31;100.00;58022.63;4849123;29;20495;-59
2023/09/01 15:29:41;;;;;;;0.00;0.00;;;;;;;-144.31;100.00;58022.63;4850488;29;20512;-60
2023/09/01 15:33:05;;;;;;;0.00;0.00;;;;;;;-144.31;100.00;58022.63;4841799;29;20080;-59
2023/09/01 15:36:29;;;;;;;0.00;0.00;;;;;;;-144.31;100.00;58022.63;4843498;29;20160;-59